Time;durP1;ratioP1;P1;durP2;ratioP2;P2;SDS_P1;SDS_P2;PMS_P1;PMS_P2;Temp;Humidity;BMP_temperature;BMP_pressure;BME280_temperature;BME280_humidity;BME280_pressure;Samples;Min_cycle;Max_cycle;Signal;HPM_P1;HPM_P2
2022/06/28 00:00:40;;;;;;;12.40;5.00;;;;;;;25.03;45.58;100211.37;106990;1279;137972;-68
2022/06/28 00:03:13;;;;;;;11.80;5.00;;;;;;;24.99;45.97;100211.90;107064;1279;96332;-68
2022/06/28 00:05:46;;;;;;;10.70;5.30;;;;;;;24.94;46.09;100211.75;107117;1279;95996;-68
2022/06/28 00:08:18;;;;;;;8.50;5.60;;;;;;;24.89;46.15;100214.40;106983;1279;137977;-65
2022/06/28 00:10:59;;;;;;;7.20;5.40;;;;;;;24.87;46.30;100220.48;107098;1279;109279;-67
2022/06/28 00:13:35;;;;;;;9.40;5.50;;;;;;;24.84;46.39;100224.53;105904;1279;138301;-67
2022/06/28 00:16:10;;;;;;;10.60;5.50;;;;;;;24.79;46.53;100217.34;105789;1279;97935;-68
2022/06/28 00:18:43;;;;;;;8.20;5.50;;;;;;;24.75;46.60;100215.36;106364;1279;138978;-68
2022/06/28 00:21:16;;;;;;;9.80;5.30;;;;;;;24.71;46.77;100218.34;105871;1279;111503;-68
2022/06/28 00:23:49;;;;;;;7.70;5.70;;;;;;;24.69;46.99;100228.71;105799;1279;108343;-67
2022/06/28 00:26:21;;;;;;;8.40;5.10;;;;;;;24.68;47.06;100238.04;105791;1281;140378;-68
2022/06/28 00:28:54;;;;;;;8.20;5.50;;;;;;;24.69;46.99;100234.39;105769;1280;97872;-67
2022/06/28 00:31:27;;;;;;;8.70;5.80;;;;;;;24.71;47.15;100233.67;106561;1279;138584;-67
2022/06/28 00:34:00;;;;;;;10.00;5.60;;;;;;;24.76;47.31;100229.02;107068;1279;112260;-66
2022/06/28 00:36:33;;;;;;;7.80;5.70;;;;;;;24.77;47.24;100231.88;107030;1279;139887;-66
2022/06/28 00:39:06;;;;;;;7.50;5.60;;;;;;;24.80;47.24;100232.88;107122;1279;107630;-66
2022/06/28 00:41:40;;;;;;;10.60;6.00;;;;;;;24.81;47.16;100233.02;106681;1279;97930;-68
2022/06/28 00:44:13;;;;;;;7.80;5.90;;;;;;;24.83;47.18;100233.45;105753;1279;137902;-68
2022/06/28 00:46:47;;;;;;;9.70;6.00;;;;;;;24.79;47.24;100234.06;107152;1279;113126;-66
2022/06/28 00:49:20;;;;;;;10.30;5.50;;;;;;;24.73;47.30;100232.80;105908;1279;139212;-67
2022/06/28 00:51:56;;;;;;;9.20;5.50;;;;;;;24.63;47.35;100230.85;105801;1279;108737;-67
2022/06/28 00:54:29;;;;;;;7.20;5.80;;;;;;;24.55;47.87;100234.61;105683;1279;138159;-67
2022/06/28 00:57:02;;;;;;;10.50;5.90;;;;;;;24.43;48.23;100242.47;107156;1279;95990;-67
2022/06/28 00:59:34;;;;;;;8.30;5.60;;;;;;;24.34;48.41;100243.83;107167;1278;112537;-67
2022/06/28 01:02:08;;;;;;;8.60;5.60;;;;;;;24.25;48.54;100241.93;106080;1279;138768;-68
2022/06/28 01:04:41;;;;;;;7.00;6.00;;;;;;;24.20;48.53;100242.52;105795;1279;107804;-67
2022/06/28 01:07:15;;;;;;;6.40;5.60;;;;;;;24.18;48.75;100241.63;106036;1279;138227;-67
2022/06/28 01:09:47;;;;;;;9.90;6.20;;;;;;;24.15;49.02;100243.16;105813;1279;98018;-67
2022/06/28 01:12:20;;;;;;;9.70;6.20;;;;;;;24.10;48.99;100239.83;105745;1279;111457;-68
2022/06/28 01:14:52;;;;;;;9.20;5.70;;;;;;;24.07;49.20;100238.33;105882;1279;138054;-67
2022/06/28 01:17:51;;;;;;;9.90;5.80;;;;;;;24.02;49.31;100239.13;107074;1279;109033;-67
2022/06/28 01:20:50;;;;;;;10.70;5.70;;;;;;;23.99;49.33;100239.39;107050;1279;139853;-67
2022/06/28 01:23:37;;;;;;;11.40;6.30;;;;;;;23.96;49.45;100233.31;107055;1279;96081;-68
2022/06/28 01:26:23;;;;;;;13.70;6.00;;;;;;;23.96;49.61;100233.80;105670;1279;138094;-67
2022/06/28 01:28:56;;;;;;;7.90;5.70;;;;;;;23.98;49.72;100239.55;106623;1279;108873;-67
2022/06/28 01:31:42;;;;;;;11.60;5.80;;;;;;;23.96;49.65;100240.75;106006;1279;139259;-67
2022/06/28 01:34:16;;;;;;;9.30;6.40;;;;;;;23.92;49.86;100242.38;107156;1279;97286;-67
2022/06/28 01:36:48;;;;;;;9.20;5.90;;;;;;;23.89;50.03;100242.50;106077;1279;138188;-67
2022/06/28 01:39:21;;;;;;;9.80;6.10;;;;;;;23.87;50.26;100251.87;106010;1279;110446;-68
2022/06/28 01:41:54;;;;;;;9.40;6.10;;;;;;;23.82;50.43;100254.80;105853;1279;108977;-67
2022/06/28 01:44:30;;;;;;;9.60;6.40;;;;;;;23.78;50.48;100247.89;105759;1279;137985;-67
2022/06/28 01:47:21;;;;;;;7.40;6.10;;;;;;;23.71;50.54;100244.93;107015;1279;95963;-68
2022/06/28 01:50:07;;;;;;;9.00;6.00;;;;;;;23.68;50.87;100245.52;107103;1278;138154;-68
2022/06/28 01:52:44;;;;;;;9.20;6.30;;;;;;;23.65;50.94;100242.61;107056;1278;113290;-68
2022/06/28 01:55:35;;;;;;;7.30;5.90;;;;;;;23.63;51.03;100246.92;107038;1279;138737;-68
2022/06/28 01:58:12;;;;;;;9.90;6.30;;;;;;;23.59;51.08;100246.85;106989;1280;107706;-68
2022/06/28 02:00:45;;;;;;;7.30;6.40;;;;;;;23.58;51.09;100242.13;106386;1279;138454;-68
2022/06/28 02:03:19;;;;;;;11.30;6.20;;;;;;;23.57;51.23;100237.96;105791;1279;97811;-67
2022/06/28 02:05:54;;;;;;;9.90;6.00;;;;;;;23.53;51.25;100233.84;107163;1279;111626;-68
2022/06/28 02:08:26;;;;;;;12.70;6.80;;;;;;;23.52;51.17;100235.89;106934;1279;141428;-68
2022/06/28 02:11:02;;;;;;;7.20;6.00;;;;;;;23.51;51.36;100234.13;106641;1279;108955;-67
2022/06/28 02:13:40;;;;;;;7.40;6.10;;;;;;;23.50;51.40;100233.89;105726;1279;138160;-67
2022/06/28 02:16:13;;;;;;;8.80;6.30;;;;;;;23.46;51.54;100228.55;107099;1279;95862;-68
2022/06/28 02:18:47;;;;;;;8.30;6.20;;;;;;;23.43;51.68;100221.96;106190;1279;138242;-67
2022/06/28 02:21:22;;;;;;;9.70;6.30;;;;;;;23.40;51.65;100220.27;105794;1279;108087;-68
2022/06/28 02:23:55;;;;;;;10.50;6.70;;;;;;;23.39;51.69;100217.86;105799;1279;108096;-67
2022/06/28 02:26:32;;;;;;;8.00;6.20;;;;;;;23.41;51.71;100225.15;105747;1278;138208;-67
2022/06/28 02:29:06;;;;;;;9.30;6.00;;;;;;;23.41;51.83;100235.54;105857;1279;97950;-68
2022/06/28 02:31:38;;;;;;;11.80;6.60;;;;;;;23.40;51.79;100240.80;105842;1279;137831;-67
2022/06/28 02:40:21;;;;;;;10.10;7.00;;;;;;;23.38;51.86;100245.79;105994;1279;107863;-69
2022/06/28 02:42:45;;;;;;;9.10;6.80;;;;;;;23.34;51.90;100242.59;105804;1279;137810;-67
2022/06/28 02:45:17;;;;;;;9.80;6.50;;;;;;;23.33;52.07;100243.77;105799;1279;113320;-67
2022/06/28 02:47:50;;;;;;;10.20;7.00;;;;;;;23.29;52.19;100245.45;105850;1279;108879;-67
2022/06/28 02:50:24;;;;;;;8.40;6.50;;;;;;;23.26;52.36;100248.45;105680;1279;138220;-68
2022/06/28 02:52:56;;;;;;;7.40;6.70;;;;;;;23.24;52.50;100247.92;107058;1278;96072;-68
2022/06/28 02:55:29;;;;;;;11.00;7.00;;;;;;;23.19;52.67;100252.70;106920;1279;138115;-68
2022/06/28 02:58:02;;;;;;;10.20;6.50;;;;;;;23.17;52.82;100249.91;107058;1278;112509;-68
2022/06/28 03:00:34;;;;;;;12.10;7.30;;;;;;;23.13;52.77;100249.88;107071;1278;138884;-68
2022/06/28 03:03:11;;;;;;;7.70;6.80;;;;;;;23.10;53.08;100254.52;107053;1279;107859;-68
2022/06/28 03:05:43;;;;;;;7.30;6.60;;;;;;;23.07;53.10;100246.52;107065;1279;96182;-68
2022/06/28 03:08:16;;;;;;;8.90;7.00;;;;;;;23.05;53.18;100243.31;106002;1279;137889;-68
2022/06/28 03:10:48;;;;;;;10.40;6.60;;;;;;;23.03;53.32;100240.98;107111;1279;112439;-68
2022/06/28 03:13:21;;;;;;;9.00;7.20;;;;;;;23.04;53.35;100234.35;107055;1279;141528;-68
2022/06/28 03:15:53;;;;;;;7.50;6.60;;;;;;;23.06;53.36;100244.42;107099;1279;108530;-68
2022/06/28 03:18:26;;;;;;;7.90;6.80;;;;;;;23.06;53.49;100248.37;106558;1279;97825;-68
2022/06/28 03:20:58;;;;;;;8.90;7.10;;;;;;;23.05;53.49;100247.04;107173;1279;96804;-68
2022/06/28 03:23:31;;;;;;;12.60;7.40;;;;;;;23.04;53.54;100244.27;107159;1279;112419;-68
2022/06/28 03:26:03;;;;;;;12.10;7.40;;;;;;;23.03;53.52;100249.27;105914;1279;138474;-68
2022/06/28 03:28:36;;;;;;;11.10;6.80;;;;;;;23.05;53.65;100253.42;105770;1279;109182;-69
2022/06/28 03:31:08;;;;;;;9.70;6.60;;;;;;;23.08;53.48;100251.73;105645;1279;138270;-69
2022/06/28 03:33:42;;;;;;;9.00;6.80;;;;;;;23.13;53.46;100245.66;107236;1279;96046;-66
2022/06/28 03:36:14;;;;;;;7.50;6.80;;;;;;;23.11;53.47;100243.27;107019;1279;110694;-67
2022/06/28 03:38:48;;;;;;;7.90;6.70;;;;;;;23.11;53.58;100242.27;106994;1279;137767;-68
2022/06/28 03:41:30;;;;;;;13.10;7.00;;;;;;;23.11;53.62;100241.14;107193;1279;108556;-67
2022/06/28 03:44:12;;;;;;;7.90;6.10;;;;;;;23.13;53.57;100243.11;106922;1279;138661;-66
2022/06/28 03:46:44;;;;;;;7.30;6.50;;;;;;;23.15;53.47;100243.15;107047;1279;96023;-67
2022/06/28 03:49:35;;;;;;;9.10;6.50;;;;;;;23.15;53.80;100243.85;107041;1279;137893;-67
2022/06/28 03:52:28;;;;;;;8.30;7.10;;;;;;;23.15;53.81;100249.16;106377;1279;107801;-68
2022/06/28 03:55:20;;;;;;;9.50;7.00;;;;;;;23.17;53.57;100255.34;105728;1279;139296;-67
2022/06/28 03:57:54;;;;;;;10.80;6.90;;;;;;;23.22;53.59;100259.02;105661;1279;97994;-67
2022/06/28 04:00:27;;;;;;;9.40;7.00;;;;;;;23.28;53.54;100259.80;105769;1279;97843;-67
2022/06/28 04:03:00;;;;;;;7.80;6.70;;;;;;;23.30;53.66;100261.71;107064;1279;110352;-67
2022/06/28 04:05:40;;;;;;;9.60;6.40;;;;;;;23.34;53.48;100256.45;107051;1279;109330;-68
2022/06/28 04:08:13;;;;;;;11.60;7.70;;;;;;;23.40;53.50;100256.33;107023;1279;137873;-68
2022/06/28 04:11:13;;;;;;;10.60;6.90;;;;;;;23.44;53.44;100254.85;106859;1279;96479;-67
2022/06/28 04:13:45;;;;;;;9.40;7.00;;;;;;;23.45;53.45;100254.94;105929;1279;138138;-67
2022/06/28 04:16:19;;;;;;;7.90;7.00;;;;;;;23.50;53.36;100249.54;107069;1278;111658;-68
2022/06/28 04:18:52;;;;;;;12.00;7.10;;;;;;;23.56;53.20;100247.99;105663;1279;138109;-67
2022/06/28 04:21:32;;;;;;;9.80;7.20;;;;;;;23.59;53.18;100244.77;105779;1279;108884;-66
2022/06/28 04:24:25;;;;;;;12.80;6.80;;;;;;;23.61;53.19;100239.96;105826;1279;98281;-68
2022/06/28 04:27:23;;;;;;;8.80;6.50;;;;;;;23.66;53.01;100232.52;106886;1281;96904;-68
2022/06/28 04:29:56;;;;;;;10.80;6.70;;;;;;;23.72;53.10;100239.48;105912;1279;111055;-67
2022/06/28 04:32:44;;;;;;;8.10;6.50;;;;;;;23.79;52.88;100245.26;106997;1278;137929;-68
2022/06/28 04:35:18;;;;;;;8.10;6.00;;;;;;;23.83;52.75;100239.24;106508;1279;107556;-66
2022/06/28 04:37:51;;;;;;;8.40;6.90;;;;;;;23.89;52.63;100237.33;107044;1279;140103;-68
2022/06/28 04:40:33;;;;;;;11.90;6.80;;;;;;;23.92;52.39;100229.90;107112;1279;96313;-69
2022/06/28 04:43:17;;;;;;;7.40;6.20;;;;;;;23.97;52.28;100227.52;106956;1279;138064;-68
2022/06/28 04:45:50;;;;;;;8.10;6.40;;;;;;;24.04;52.38;100224.06;107076;1279;107611;-68
2022/06/28 04:48:23;;;;;;;15.70;6.60;;;;;;;24.15;52.15;100215.08;107076;1279;109081;-68
2022/06/28 04:50:55;;;;;;;12.10;5.50;;;;;;;24.20;51.80;100213.23;107010;1279;96046;-68
2022/06/28 04:53:28;;;;;;;7.40;6.50;;;;;;;24.24;51.69;100207.58;106975;1279;96010;-68
2022/06/28 04:56:03;;;;;;;9.00;6.20;;;;;;;24.34;51.73;100204.91;106903;1279;138474;-68
2022/06/28 04:58:36;;;;;;;10.40;6.70;;;;;;;24.41;51.43;100197.32;106312;1279;108566;-69
2022/06/28 05:01:09;;;;;;;9.90;6.20;;;;;;;24.50;51.19;100197.23;107037;1278;139025;-67
2022/06/28 05:03:45;;;;;;;7.20;5.90;;;;;;;24.61;51.05;100194.21;107088;1279;96347;-68
2022/06/28 05:06:17;;;;;;;10.80;6.90;;;;;;;24.73;50.74;100193.11;107132;1279;96142;-67
2022/06/28 05:08:58;;;;;;;9.40;6.80;;;;;;;24.82;50.57;100196.27;105929;1279;113127;-67
2022/06/28 05:11:51;;;;;;;8.90;6.40;;;;;;;24.83;50.43;100190.41;106993;1279;107919;-67
2022/06/28 05:14:31;;;;;;;9.10;6.70;;;;;;;24.89;50.22;100193.06;106244;1279;137999;-68
2022/06/28 05:17:04;;;;;;;10.90;7.10;;;;;;;24.92;50.00;100191.14;105711;1279;97927;-67
2022/06/28 05:19:37;;;;;;;8.70;6.70;;;;;;;24.94;50.19;100187.25;106694;1279;139158;-69
2022/06/28 05:22:09;;;;;;;12.00;6.70;;;;;;;25.03;49.95;100188.45;105833;1279;112559;-71
2022/06/28 05:24:58;;;;;;;9.30;6.50;;;;;;;25.13;50.07;100183.39;105731;1279;138851;-70
2022/06/28 05:27:30;;;;;;;10.90;6.90;;;;;;;25.26;49.62;100176.92;105802;1279;108849;-70
2022/06/28 05:30:03;;;;;;;9.10;6.50;;;;;;;25.33;49.43;100183.15;105743;1279;97936;-68
2022/06/28 05:32:36;;;;;;;9.70;6.70;;;;;;;25.48;49.33;100187.70;106821;1279;138156;-68
2022/06/28 05:35:10;;;;;;;12.30;6.50;;;;;;;25.70;49.08;100186.27;107196;1278;112501;-68
2022/06/28 05:37:42;;;;;;;7.50;6.00;;;;;;;25.98;48.51;100175.97;107016;1279;138873;-68
2022/06/28 05:40:16;;;;;;;9.40;6.30;;;;;;;26.21;48.57;100175.67;106129;1279;108888;-70
2022/06/28 05:42:49;;;;;;;12.30;6.20;;;;;;;26.43;48.11;100175.04;106942;1278;139141;-68
2022/06/28 05:45:21;;;;;;;9.30;5.90;;;;;;;26.70;47.63;100178.24;106948;1279;96403;-69
2022/06/28 05:47:54;;;;;;;10.80;6.40;;;;;;;26.91;47.00;100180.71;106995;1279;111141;-69
2022/06/28 05:50:27;;;;;;;11.30;5.80;;;;;;;27.13;46.51;100182.48;106974;1279;138993;-67
2022/06/28 05:52:59;;;;;;;11.40;6.30;;;;;;;27.30;45.56;100183.20;106999;1279;108939;-67
2022/06/28 05:55:31;;;;;;;14.90;6.10;;;;;;;27.45;45.80;100182.70;106913;1279;138383;-67
2022/06/28 05:58:04;;;;;;;11.20;5.50;;;;;;;27.71;45.45;100184.09;107159;1279;96212;-70
2022/06/28 06:00:39;;;;;;;8.70;5.40;;;;;;;28.06;44.83;100181.04;107050;1279;138074;-69
2022/06/28 06:03:11;;;;;;;14.00;5.90;;;;;;;28.73;44.19;100182.04;106977;1279;108736;-67
2022/06/28 06:05:44;;;;;;;10.40;5.10;;;;;;;30.01;42.33;100182.15;107171;1279;108852;-67
2022/06/28 06:08:17;;;;;;;10.20;5.20;;;;;;;31.59;40.13;100173.34;106257;1280;138272;-70
2022/06/28 06:10:52;;;;;;;12.00;4.80;;;;;;;33.11;37.25;100170.35;105794;1279;97926;-69
2022/06/28 06:13:24;;;;;;;11.00;4.80;;;;;;;34.27;35.53;100164.25;105667;1279;138183;-68
2022/06/28 06:15:57;;;;;;;14.80;4.90;;;;;;;35.29;33.83;100159.77;107162;1279;108913;-69
2022/06/28 06:18:29;;;;;;;11.70;4.80;;;;;;;36.19;32.14;100149.40;106882;1279;139236;-69
2022/06/28 06:21:02;;;;;;;8.50;4.60;;;;;;;36.86;29.74;100148.60;106739;1279;97843;-69
2022/06/28 06:23:35;;;;;;;10.00;4.60;;;;;;;37.31;28.97;100152.21;105821;1279;97723;-69
2022/06/28 06:26:30;;;;;;;10.40;4.60;;;;;;;37.88;28.59;100159.72;105694;1279;137964;-69
2022/06/28 06:29:02;;;;;;;6.80;4.50;;;;;;;38.58;27.86;100158.27;105991;1279;108967;-68
2022/06/28 06:31:35;;;;;;;9.70;4.50;;;;;;;39.07;27.26;100154.81;106925;1279;138997;-68
2022/06/28 06:34:26;;;;;;;7.10;3.80;;;;;;;39.70;26.30;100148.40;106098;1279;97841;-68
2022/06/28 06:37:08;;;;;;;8.10;4.00;;;;;;;39.97;24.98;100159.64;106983;1277;138337;-68
2022/06/28 06:39:41;;;;;;;7.90;4.20;;;;;;;40.06;24.70;100163.55;107072;1279;111465;-68
2022/06/28 06:42:14;;;;;;;6.30;4.00;;;;;;;40.14;24.16;100168.00;107112;1279;108987;-68
2022/06/28 06:44:50;;;;;;;8.80;4.30;;;;;;;40.24;24.04;100167.04;106429;1279;137643;-67
2022/06/28 06:47:23;;;;;;;8.50;4.20;;;;;;;40.50;24.31;100167.35;105792;1279;97944;-70
2022/06/28 06:49:56;;;;;;;6.60;4.20;;;;;;;40.63;23.62;100165.52;107085;1279;138406;-68
2022/06/28 06:52:29;;;;;;;7.00;4.30;;;;;;;40.53;23.46;100168.21;107069;1279;111773;-68
2022/06/28 06:55:02;;;;;;;7.40;4.80;;;;;;;40.63;23.57;100159.09;106858;1279;138085;-68
2022/06/28 06:57:34;;;;;;;9.10;3.90;;;;;;;40.63;23.40;100159.39;107155;1279;109493;-68
2022/06/28 07:00:10;;;;;;;12.10;4.30;;;;;;;40.91;23.13;100155.53;107077;1278;96042;-68
2022/06/28 07:02:44;;;;;;;8.40;4.60;;;;;;;40.94;22.70;100166.94;106359;1279;138010;-68
2022/06/28 07:05:17;;;;;;;13.50;4.40;;;;;;;40.78;22.29;100170.35;105824;1279;112616;-68
2022/06/28 07:07:50;;;;;;;7.10;4.80;;;;;;;40.68;22.45;100159.73;107068;1278;138126;-68
2022/06/28 07:10:24;;;;;;;7.10;3.90;;;;;;;40.71;22.48;100166.39;106935;1279;109068;-68
2022/06/28 07:12:57;;;;;;;12.40;4.00;;;;;;;40.84;22.75;100162.34;106812;1279;138240;-68
2022/06/28 07:15:30;;;;;;;12.80;4.80;;;;;;;41.21;22.59;100163.12;106197;1279;97870;-68
2022/06/28 07:18:04;;;;;;;12.30;4.10;;;;;;;41.52;22.40;100162.67;107091;1279;111377;-68
2022/06/28 07:20:37;;;;;;;12.60;4.20;;;;;;;41.79;21.96;100163.80;106421;1279;138539;-68
2022/06/28 07:23:10;;;;;;;7.10;4.50;;;;;;;41.90;21.57;100169.51;105981;1278;108815;-67
2022/06/28 07:25:49;;;;;;;12.20;4.20;;;;;;;41.81;21.36;100166.18;105579;1279;138271;-67
2022/06/28 07:28:22;;;;;;;8.20;4.10;;;;;;;41.66;21.63;100167.48;105598;1279;97827;-68
2022/06/28 07:30:54;;;;;;;8.40;4.10;;;;;;;41.53;21.01;100176.98;105763;1279;137868;-68
2022/06/28 07:33:27;;;;;;;6.60;3.90;;;;;;;41.13;21.29;100176.36;106708;1279;109059;-68
2022/06/28 07:36:00;;;;;;;5.10;4.00;;;;;;;40.83;21.41;100186.65;107064;1279;108608;-68
2022/06/28 07:38:33;;;;;;;5.40;4.10;;;;;;;40.39;21.85;100179.11;106969;1279;138044;-69
2022/06/28 07:41:24;;;;;;;8.30;4.20;;;;;;;40.36;22.17;100180.90;107156;1279;96046;-68
2022/06/28 07:44:06;;;;;;;9.20;4.50;;;;;;;40.28;22.26;100177.37;106948;1279;137827;-68
2022/06/28 07:46:40;;;;;;;4.80;3.70;;;;;;;40.41;22.38;100169.21;105862;1279;109559;-67
2022/06/28 07:49:13;;;;;;;11.70;4.30;;;;;;;40.63;22.49;100171.40;107034;1279;137999;-68
2022/06/28 07:54:36;;;;;;;7.60;3.60;;;;;;;41.24;21.80;100164.27;105556;1279;137897;-67
2022/06/28 07:57:18;;;;;;;7.40;3.80;;;;;;;41.33;21.50;100167.16;105629;1279;112351;-67
2022/06/28 07:59:50;;;;;;;9.10;3.60;;;;;;;41.01;20.80;100174.64;106955;1279;108672;-67
2022/06/28 08:02:24;;;;;;;10.70;3.70;;;;;;;40.52;21.20;100176.34;106917;1279;140705;-68
2022/06/28 08:04:57;;;;;;;10.70;3.90;;;;;;;40.22;21.45;100184.33;107039;1279;96180;-68
2022/06/28 08:07:30;;;;;;;9.00;3.40;;;;;;;39.95;21.67;100179.69;106961;1279;137975;-68
2022/06/28 08:10:03;;;;;;;5.80;3.20;;;;;;;39.80;21.85;100181.19;107048;1279;113227;-67
2022/06/28 08:12:36;;;;;;;9.00;3.40;;;;;;;39.67;21.69;100193.31;106881;1279;138005;-68
2022/06/28 08:15:11;;;;;;;8.00;3.40;;;;;;;39.50;21.74;100182.84;106931;1279;107602;-68
2022/06/28 08:17:44;;;;;;;5.90;3.40;;;;;;;39.32;21.68;100196.24;106063;1279;97832;-67
2022/06/28 08:20:17;;;;;;;6.40;3.30;;;;;;;38.99;22.24;100188.96;105726;1279;137724;-67
2022/06/28 08:22:50;;;;;;;7.60;3.80;;;;;;;39.02;22.40;100193.28;105826;1279;110732;-68
2022/06/28 08:25:22;;;;;;;6.20;3.30;;;;;;;39.16;22.55;100175.15;106774;1279;138126;-68
2022/06/28 08:27:56;;;;;;;9.90;3.70;;;;;;;39.30;22.44;100179.61;106893;1279;108678;-68
2022/06/28 08:30:28;;;;;;;7.20;3.30;;;;;;;39.46;22.11;100187.70;106886;1279;138403;-68
2022/06/28 08:33:01;;;;;;;7.10;3.00;;;;;;;39.44;21.87;100191.48;106886;1279;96186;-68
2022/06/28 08:35:34;;;;;;;6.00;3.30;;;;;;;39.40;21.75;100191.52;105962;1279;111486;-66
2022/06/28 08:38:07;;;;;;;9.10;3.80;;;;;;;39.38;21.72;100190.43;105661;1279;138052;-67
2022/06/28 08:40:40;;;;;;;8.40;3.50;;;;;;;39.16;21.66;100200.36;107114;1279;109945;-67
2022/06/28 08:43:12;;;;;;;8.80;3.60;;;;;;;38.96;21.98;100190.36;107037;1278;138031;-68
2022/06/28 08:45:47;;;;;;;4.90;3.50;;;;;;;38.82;21.81;100199.52;106988;1279;96131;-70
2022/06/28 08:48:26;;;;;;;6.30;3.10;;;;;;;38.58;21.98;100197.90;107069;1279;111497;-68
2022/06/28 08:50:59;;;;;;;6.40;3.70;;;;;;;38.35;22.42;100199.65;107166;1279;109882;-67
2022/06/28 08:53:35;;;;;;;4.80;3.60;;;;;;;38.21;22.94;100197.09;105972;1279;108748;-69
2022/06/28 08:56:09;;;;;;;6.90;3.50;;;;;;;38.38;22.99;100193.62;106928;1279;137833;-69
2022/06/28 08:58:44;;;;;;;10.90;3.70;;;;;;;38.54;22.75;100198.06;105959;1279;97858;-68
2022/06/28 09:01:16;;;;;;;7.50;3.40;;;;;;;38.51;22.61;100203.95;105715;1279;138073;-67
2022/06/28 09:03:53;;;;;;;8.80;3.60;;;;;;;38.45;22.81;100185.20;106782;1279;109116;-68
2022/06/28 09:06:26;;;;;;;8.00;3.40;;;;;;;38.33;23.10;100191.48;105707;1279;109104;-67
2022/06/28 09:08:59;;;;;;;7.20;3.50;;;;;;;38.22;23.57;100181.36;105653;1279;97843;-67
2022/06/28 09:11:40;;;;;;;6.80;4.10;;;;;;;38.28;23.83;100180.95;106811;1281;96513;-68
2022/06/28 09:14:25;;;;;;;6.30;3.70;;;;;;;38.16;23.43;100186.30;106889;1279;137753;-68
2022/06/28 09:16:59;;;;;;;5.20;3.30;;;;;;;38.13;23.37;100179.80;107049;1279;106943;-66
2022/06/28 09:19:39;;;;;;;5.10;4.20;;;;;;;38.26;23.37;100171.66;107000;1279;138549;-68
2022/06/28 09:22:27;;;;;;;6.50;3.70;;;;;;;38.44;23.66;100172.55;107070;1279;96042;-68
2022/06/28 09:25:01;;;;;;;6.80;3.70;;;;;;;38.22;23.05;100180.95;107005;1279;138373;-67
2022/06/28 09:27:35;;;;;;;7.40;3.40;;;;;;;37.89;23.79;100175.10;107074;1279;112214;-67
2022/06/28 09:30:10;;;;;;;8.70;3.70;;;;;;;37.71;24.13;100163.73;106997;1281;108987;-67
2022/06/28 09:32:43;;;;;;;6.90;3.70;;;;;;;37.85;24.42;100157.90;107018;1279;138116;-67
2022/06/28 09:35:15;;;;;;;11.90;3.70;;;;;;;38.00;23.99;100159.73;106186;1279;97857;-67
2022/06/28 09:37:50;;;;;;;6.70;3.40;;;;;;;37.87;23.84;100163.52;105521;1279;138045;-67
2022/06/28 09:40:25;;;;;;;6.70;3.60;;;;;;;37.66;24.04;100151.84;105994;1279;113316;-67
2022/06/28 09:43:12;;;;;;;5.20;3.20;;;;;;;37.69;24.42;100150.91;106944;1279;138113;-67
2022/06/28 09:45:46;;;;;;;6.00;3.40;;;;;;;37.96;23.82;100149.88;106868;1279;109057;-67
2022/06/28 09:48:21;;;;;;;4.80;3.10;;;;;;;37.98;23.79;100147.80;106590;1279;372436;-67
2022/06/28 09:50:59;;;;;;;4.20;3.30;;;;;;;38.19;23.73;100142.21;106184;1279;137806;-67
2022/06/28 09:53:34;;;;;;;6.40;3.30;;;;;;;38.41;23.71;100133.89;106827;1279;112593;-67
2022/06/28 09:56:31;;;;;;;4.10;3.40;;;;;;;38.59;23.13;100144.30;106961;1279;138440;-67
2022/06/28 09:59:05;;;;;;;4.30;3.40;;;;;;;38.20;22.72;100155.39;107090;1279;108921;-67
2022/06/28 10:01:38;;;;;;;3.40;3.10;;;;;;;37.87;23.38;100148.98;106858;1279;138084;-67
2022/06/28 10:04:10;;;;;;;4.50;3.70;;;;;;;37.76;23.76;100155.42;107125;1279;96165;-68
2022/06/28 10:06:43;;;;;;;8.70;3.70;;;;;;;37.64;23.98;100153.64;106939;1279;138009;-67
2022/06/28 10:09:18;;;;;;;5.50;3.20;;;;;;;37.73;24.07;100145.27;107143;1279;108892;-69
2022/06/28 10:17:45;;;;;;;5.20;3.50;;;;;;;37.79;23.73;100137.33;106539;1284;96234;-66
2022/06/28 10:20:23;;;;;;;6.80;3.10;;;;;;;37.77;23.31;100144.92;105933;1283;137792;-67
2022/06/28 10:23:25;;;;;;;5.80;3.10;;;;;;;37.62;23.41;100143.95;106312;1283;108825;-67
2022/06/28 10:26:12;;;;;;;5.20;3.60;;;;;;;37.58;23.77;100145.23;106409;1284;138121;-66
2022/06/28 10:28:46;;;;;;;5.60;3.40;;;;;;;37.62;23.76;100150.73;106561;1284;96902;-66
2022/06/28 10:31:36;;;;;;;5.30;3.70;;;;;;;37.34;23.77;100147.20;106459;1284;138396;-66
2022/06/28 10:34:23;;;;;;;5.90;3.10;;;;;;;37.17;23.98;100141.23;105682;1284;112708;-68
2022/06/28 10:36:58;;;;;;;9.10;3.50;;;;;;;37.18;24.01;100148.00;106432;1284;138053;-66
2022/06/28 10:39:32;;;;;;;7.00;3.10;;;;;;;36.96;23.47;100152.73;105846;1284;109398;-67
2022/06/28 10:42:15;;;;;;;4.60;3.70;;;;;;;36.86;23.91;100142.43;106571;1284;96313;-67
2022/06/28 10:44:48;;;;;;;7.30;3.50;;;;;;;36.87;24.11;100140.58;105403;1284;138253;-67
2022/06/28 10:47:20;;;;;;;6.20;3.90;;;;;;;36.78;24.21;100131.91;105906;1284;112633;-67
2022/06/28 10:50:02;;;;;;;7.20;3.50;;;;;;;36.76;24.07;100129.06;106520;1284;137860;-67
2022/06/28 10:52:36;;;;;;;5.40;3.90;;;;;;;36.74;24.50;100125.90;106720;1281;107957;-67
2022/06/28 10:55:24;;;;;;;4.80;3.40;;;;;;;36.82;24.46;100137.15;106982;1279;140132;-67
2022/06/28 10:58:12;;;;;;;6.80;3.50;;;;;;;36.70;24.25;100127.90;107176;1279;96149;-67
2022/06/28 11:00:55;;;;;;;6.40;3.50;;;;;;;36.53;24.03;100148.06;106690;1278;137937;-67
2022/06/28 11:03:28;;;;;;;5.40;3.40;;;;;;;36.34;24.03;100134.00;107117;1279;108933;-67
2022/06/28 11:06:01;;;;;;;6.00;3.40;;;;;;;36.27;24.47;100130.21;106885;1281;107526;-66
2022/06/28 11:08:50;;;;;;;7.00;3.60;;;;;;;36.24;24.48;100128.98;105694;1279;138174;-68
2022/06/28 11:11:23;;;;;;;6.00;3.40;;;;;;;36.23;24.39;100129.89;107171;1279;95866;-68
2022/06/28 11:14:22;;;;;;;5.10;3.40;;;;;;;36.31;24.44;100128.95;105815;1280;137719;-67
2022/06/28 11:16:54;;;;;;;7.40;3.60;;;;;;;36.15;24.66;100132.34;107055;1281;108028;-67
2022/06/28 11:19:27;;;;;;;8.30;3.70;;;;;;;35.87;24.81;100135.92;106904;1279;138568;-67
2022/06/28 11:21:59;;;;;;;8.80;4.30;;;;;;;35.55;24.95;100130.45;107037;1278;98426;-66
2022/06/28 11:24:32;;;;;;;4.30;3.70;;;;;;;35.19;25.27;100131.75;106976;1280;138602;-66
2022/06/28 11:27:21;;;;;;;5.80;3.50;;;;;;;34.93;25.43;100136.58;107078;1279;112500;-67
2022/06/28 11:30:07;;;;;;;6.70;3.80;;;;;;;34.69;25.26;100141.91;107011;1279;109043;-66
2022/06/28 11:32:43;;;;;;;4.70;3.70;;;;;;;34.43;25.51;100139.77;106867;1279;137809;-68
2022/06/28 11:35:17;;;;;;;4.60;3.30;;;;;;;34.31;25.66;100139.90;107092;1280;95966;-66
2022/06/28 11:37:53;;;;;;;8.70;3.70;;;;;;;34.38;25.91;100129.89;106963;1279;137713;-67
2022/06/28 11:40:28;;;;;;;4.50;3.60;;;;;;;34.51;25.65;100135.66;106982;1279;112465;-67
2022/06/28 11:43:05;;;;;;;4.40;3.70;;;;;;;34.55;25.98;100133.79;106905;1280;139046;-66
2022/06/28 11:45:39;;;;;;;4.40;3.60;;;;;;;34.64;26.36;100124.54;107082;1278;107556;-67
2022/06/28 11:48:15;;;;;;;8.60;4.30;;;;;;;34.78;26.47;100135.73;107125;1279;96877;-67
2022/06/28 11:50:51;;;;;;;6.30;4.10;;;;;;;34.72;26.48;100135.49;106203;1281;137450;-66
2022/06/28 11:53:25;;;;;;;4.70;3.60;;;;;;;34.59;26.23;100140.23;105751;1281;112079;-65
2022/06/28 11:56:00;;;;;;;7.80;4.00;;;;;;;34.45;25.93;100143.64;106325;1279;138069;-66
2022/06/28 11:58:37;;;;;;;4.40;3.60;;;;;;;34.33;26.20;100137.58;107021;1279;107837;-67
2022/06/28 12:01:11;;;;;;;5.40;3.60;;;;;;;34.36;26.48;100135.80;106942;1276;137939;-67
2022/06/28 12:03:58;;;;;;;5.10;3.80;;;;;;;34.46;26.46;100134.90;106975;1281;96407;-67